createdAt,value
2022-11-22T00:02:02.138Z,9.10
2022-11-22T00:04:50.371Z,7.40
2022-11-22T00:07:38.000Z,9.83
2022-11-22T00:10:24.738Z,10.83
2022-11-22T00:13:11.371Z,11.73
2022-11-22T00:16:01.564Z,10.87
2022-11-22T00:18:48.018Z,9.67
2022-11-22T00:21:35.815Z,9.57
2022-11-22T00:24:22.633Z,8.43
2022-11-22T00:27:09.129Z,9.40
2022-11-22T00:29:55.490Z,9.30
2022-11-22T00:32:42.063Z,9.40
2022-11-22T00:35:28.619Z,10.23
2022-11-22T00:38:16.312Z,8.70
2022-11-22T00:41:03.051Z,7.97
2022-11-22T00:43:49.721Z,9.30
2022-11-22T00:46:36.097Z,13.07
2022-11-22T00:49:22.717Z,9.63
2022-11-22T00:52:09.593Z,10.67
2022-11-22T00:54:57.395Z,10.83
2022-11-22T00:57:44.042Z,11.00
2022-11-22T01:00:30.780Z,8.40
2022-11-22T01:03:17.557Z,12.07
2022-11-22T01:06:04.013Z,10.77
2022-11-22T01:08:50.965Z,10.03
2022-11-22T01:11:38.804Z,10.27
2022-11-22T01:14:25.662Z,11.10
2022-11-22T01:17:12.426Z,8.47
2022-11-22T01:20:00.762Z,9.90
2022-11-22T01:22:47.169Z,9.57
2022-11-22T01:25:33.501Z,10.70
2022-11-22T01:28:21.466Z,10.57
2022-11-22T01:31:08.099Z,9.10
2022-11-22T01:33:54.460Z,9.50
2022-11-22T01:36:41.120Z,10.30
2022-11-22T01:39:28.064Z,10.50
2022-11-22T01:42:15.080Z,10.00
2022-11-22T01:45:35.047Z,10.33
2022-11-22T01:48:31.918Z,9.63
2022-11-22T01:51:24.229Z,8.70
2022-11-22T01:54:14.859Z,10.80
2022-11-22T01:57:07.907Z,9.53
2022-11-22T01:59:59.491Z,10.13
2022-11-22T02:02:51.646Z,11.57
2022-11-22T02:05:39.925Z,10.90
2022-11-22T02:08:31.943Z,10.23
2022-11-22T02:11:19.539Z,11.33
2022-11-22T02:14:09.132Z,9.80
2022-11-22T02:16:56.111Z,8.47
2022-11-22T02:19:44.639Z,10.30
2022-11-22T02:22:37.328Z,9.90
2022-11-22T02:25:31.374Z,9.70
2022-11-22T02:28:19.331Z,10.87
2022-11-22T02:31:06.191Z,10.00
2022-11-22T02:33:54.448Z,11.47
2022-11-22T02:36:48.233Z,10.17
2022-11-22T02:39:35.034Z,12.07
2022-11-22T02:42:22.254Z,12.33
2022-11-22T02:45:11.465Z,11.83
2022-11-22T02:48:06.658Z,14.43
2022-11-22T02:50:53.062Z,14.47
2022-11-22T02:53:39.531Z,15.50
2022-11-22T02:56:25.890Z,13.03
2022-11-22T02:59:12.427Z,16.63
2022-11-22T03:02:03.364Z,15.57
2022-11-22T03:04:50.159Z,13.20
2022-11-22T03:07:36.729Z,13.73
2022-11-22T03:10:23.290Z,13.93
2022-11-22T03:13:09.773Z,13.67
2022-11-22T03:15:56.279Z,14.40
2022-11-22T03:18:44.264Z,12.17
2022-11-22T03:21:30.938Z,15.07
2022-11-22T03:24:17.517Z,14.53
2022-11-22T03:27:03.959Z,15.53
2022-11-22T03:29:50.363Z,12.87
2022-11-22T03:32:36.971Z,11.80
2022-11-22T03:35:25.035Z,12.57
2022-11-22T03:38:11.694Z,12.37
2022-11-22T03:40:58.372Z,12.93
2022-11-22T03:43:44.885Z,12.80
2022-11-22T03:46:31.306Z,12.20
2022-11-22T03:49:17.852Z,14.40
2022-11-22T03:52:06.377Z,13.37
2022-11-22T03:54:52.751Z,12.97
2022-11-22T03:57:39.210Z,13.03
2022-11-22T04:00:25.765Z,13.23
2022-11-22T04:03:12.182Z,13.40
2022-11-22T04:05:58.757Z,10.60
2022-11-22T04:08:47.143Z,13.13
2022-11-22T04:11:33.735Z,12.53
2022-11-22T04:14:37.597Z,11.10
2022-11-22T04:17:38.250Z,17.73
2022-11-22T04:20:45.095Z,13.63
2022-11-22T04:23:34.174Z,13.43
2022-11-22T04:26:21.734Z,11.53
2022-11-22T04:29:10.281Z,11.77
2022-11-22T04:32:14.692Z,9.97
2022-11-22T04:35:01.439Z,11.97
2022-11-22T04:37:52.184Z,12.90
2022-11-22T04:40:39.782Z,12.17
2022-11-22T04:43:47.166Z,13.03
2022-11-22T04:46:33.971Z,14.43
2022-11-22T04:49:20.708Z,10.80
2022-11-22T04:52:25.181Z,9.57
2022-11-22T04:55:11.878Z,10.80
2022-11-22T04:58:00.196Z,10.60
2022-11-22T05:00:48.728Z,11.50
2022-11-22T05:03:35.539Z,12.40
2022-11-22T05:06:22.231Z,11.67
2022-11-22T05:09:08.717Z,10.33
2022-11-22T05:11:55.059Z,7.50
2022-11-22T05:14:41.704Z,10.37
2022-11-22T05:17:29.539Z,8.30
2022-11-22T05:20:16.166Z,7.83
2022-11-22T05:23:20.778Z,10.23
2022-11-22T05:26:08.242Z,7.87
2022-11-22T05:28:54.798Z,9.20
2022-11-22T05:31:45.719Z,11.20
2022-11-22T05:34:38.008Z,10.13
2022-11-22T05:37:24.758Z,8.83
2022-11-22T05:40:12.853Z,9.37
2022-11-22T05:42:59.726Z,8.83
2022-11-22T05:45:46.095Z,8.00
2022-11-22T05:48:32.609Z,7.90
2022-11-22T05:51:22.326Z,7.43
2022-11-22T05:54:08.856Z,9.90
2022-11-22T05:56:55.268Z,9.97
2022-11-22T05:59:44.363Z,8.90
2022-11-22T06:02:32.450Z,9.40
2022-11-22T06:05:19.335Z,15.63
2022-11-22T06:08:07.480Z,10.60
2022-11-22T06:10:54.443Z,8.60
2022-11-22T06:13:44.065Z,8.37
2022-11-22T06:16:30.814Z,9.47
2022-11-22T06:19:17.551Z,8.37
2022-11-22T06:22:04.656Z,7.10
2022-11-22T06:24:52.501Z,9.43
2022-11-22T06:27:39.255Z,12.13
2022-11-22T06:30:25.842Z,10.93
2022-11-22T06:33:12.267Z,12.03
2022-11-22T06:36:03.111Z,10.47
2022-11-22T06:38:49.959Z,10.70
2022-11-22T06:41:38.877Z,10.17
2022-11-22T06:44:25.347Z,10.90
2022-11-22T06:47:11.850Z,9.77
2022-11-22T06:49:58.338Z,12.00
2022-11-22T06:52:44.821Z,11.57
2022-11-22T06:55:49.576Z,12.00
2022-11-22T06:58:38.451Z,12.50
2022-11-22T07:01:27.546Z,11.43
2022-11-22T07:04:14.422Z,11.40
2022-11-22T07:07:00.952Z,11.47
2022-11-22T07:09:49.988Z,12.70
2022-11-22T07:12:40.095Z,13.47
2022-11-22T07:15:27.811Z,8.43
2022-11-22T07:18:14.421Z,8.97
2022-11-22T07:21:10.929Z,7.93
2022-11-22T07:23:59.515Z,7.67
2022-11-22T07:26:46.162Z,8.93
2022-11-22T07:29:32.756Z,6.30
2022-11-22T07:32:21.007Z,9.43
2022-11-22T07:35:08.365Z,9.87
2022-11-22T07:37:55.262Z,8.37
2022-11-22T07:40:41.794Z,11.67
2022-11-22T07:43:28.286Z,8.83
2022-11-22T07:46:21.521Z,7.87
2022-11-22T07:49:10.811Z,6.73
2022-11-22T07:51:59.485Z,11.03
2022-11-22T07:54:46.221Z,8.10
2022-11-22T07:57:32.749Z,8.00
2022-11-22T08:00:20.061Z,6.33
2022-11-22T08:03:08.434Z,7.27
2022-11-22T08:06:01.902Z,8.17
2022-11-22T08:08:48.669Z,8.47
2022-11-22T08:11:35.133Z,6.03
2022-11-22T08:14:21.825Z,8.80
2022-11-22T08:17:09.229Z,7.03
2022-11-22T08:19:55.718Z,11.30
2022-11-22T08:22:43.829Z,8.47
2022-11-22T08:25:30.689Z,7.43
2022-11-22T08:28:17.206Z,6.60
2022-11-22T08:31:05.645Z,7.07
2022-11-22T08:33:54.863Z,6.63
2022-11-22T08:36:41.343Z,9.87
2022-11-22T08:39:29.385Z,8.43
2022-11-22T08:42:16.547Z,9.07
2022-11-22T08:45:03.495Z,8.20
2022-11-22T08:47:50.054Z,11.00
2022-11-22T08:50:36.868Z,7.17
2022-11-22T08:53:25.985Z,8.23
2022-11-22T08:56:15.882Z,6.87
2022-11-22T08:59:02.486Z,8.97
2022-11-22T09:01:49.077Z,8.10
2022-11-22T09:04:36.149Z,6.63
2022-11-22T09:10:29.120Z,7.00
2022-11-22T09:13:16.937Z,4.80
2022-11-22T09:16:04.581Z,7.33
2022-11-22T09:18:53.134Z,7.53
2022-11-22T09:21:39.654Z,5.10
2022-11-22T09:24:26.233Z,6.87
2022-11-22T09:27:12.727Z,9.73
2022-11-22T09:30:00.656Z,11.33
2022-11-22T09:32:47.333Z,5.63
2022-11-22T09:35:33.863Z,4.03
2022-11-22T09:38:20.303Z,9.93
2022-11-22T09:41:22.307Z,6.47
2022-11-22T09:44:18.898Z,8.37
2022-11-22T09:47:17.148Z,7.93
2022-11-22T09:50:15.770Z,5.40
2022-11-22T09:53:08.528Z,9.47
2022-11-22T09:55:59.430Z,5.57
2022-11-22T09:58:51.614Z,4.97
2022-11-22T10:01:44.437Z,4.97
2022-11-22T10:04:38.243Z,5.23
2022-11-22T10:07:30.792Z,4.60
2022-11-22T10:10:23.416Z,4.20
2022-11-22T10:13:16.333Z,6.67
2022-11-22T10:16:07.942Z,5.53
2022-11-22T10:19:02.447Z,3.20
2022-11-22T10:21:50.353Z,5.80
2022-11-22T10:24:36.768Z,7.20
2022-11-22T10:27:23.255Z,6.13
2022-11-22T10:30:17.432Z,5.20
2022-11-22T10:33:11.489Z,7.57
2022-11-22T10:36:15.608Z,4.90
2022-11-22T10:39:24.554Z,5.40
2022-11-22T10:42:24.971Z,3.67
2022-11-22T10:45:17.802Z,4.97
2022-11-22T10:48:17.776Z,3.17
2022-11-22T10:51:14.411Z,4.17
2022-11-22T10:54:13.778Z,2.97
2022-11-22T10:57:08.651Z,3.73
2022-11-22T11:00:10.436Z,3.70
2022-11-22T11:03:13.148Z,5.57
2022-11-22T11:06:22.848Z,5.93
2022-11-22T11:12:34.762Z,5.10
2022-11-22T11:15:24.339Z,3.93
2022-11-22T11:18:20.233Z,3.53
2022-11-22T11:21:07.695Z,3.67
2022-11-22T11:23:54.618Z,10.57
2022-11-22T11:26:42.966Z,5.07
2022-11-22T11:29:42.534Z,3.20
2022-11-22T11:32:29.321Z,3.97
2022-11-22T11:35:16.743Z,5.37
2022-11-22T11:38:03.698Z,4.77
2022-11-22T11:40:50.343Z,8.73
2022-11-22T11:43:43.776Z,5.90
2022-11-22T11:46:46.222Z,7.23
2022-11-22T11:49:34.499Z,6.43
2022-11-22T11:52:24.167Z,6.77
2022-11-22T11:55:18.022Z,5.47
2022-11-22T11:58:17.503Z,3.33
2022-11-22T12:01:10.944Z,7.00
2022-11-22T12:04:02.884Z,4.73
2022-11-22T12:07:03.014Z,3.47
2022-11-22T12:09:51.715Z,6.20
2022-11-22T12:12:46.444Z,4.00
2022-11-22T12:15:43.025Z,6.80
2022-11-22T12:18:39.793Z,3.53
2022-11-22T12:21:34.401Z,8.57
2022-11-22T12:24:45.578Z,2.67
2022-11-22T12:27:33.300Z,7.77
2022-11-22T12:30:20.492Z,5.47
2022-11-22T12:33:09.079Z,6.57
2022-11-22T12:35:56.473Z,4.47
2022-11-22T12:38:46.998Z,5.10
2022-11-22T12:41:35.698Z,4.90
2022-11-22T12:44:22.965Z,3.03
2022-11-22T12:47:15.044Z,3.73
2022-11-22T12:50:08.525Z,4.67
2022-11-22T12:53:01.347Z,5.87
2022-11-22T12:55:55.406Z,4.33
2022-11-22T12:58:48.701Z,6.23
2022-11-22T13:01:40.709Z,6.27
2022-11-22T13:04:33.755Z,5.40
2022-11-22T13:07:28.236Z,4.50
2022-11-22T13:10:32.901Z,3.80
2022-11-22T13:13:26.903Z,3.17
2022-11-22T13:16:14.374Z,7.50
2022-11-22T13:19:03.044Z,7.00
2022-11-22T13:22:08.929Z,3.00
2022-11-22T13:25:09.085Z,5.60
2022-11-22T13:27:59.303Z,3.37
2022-11-22T13:31:14.577Z,3.30
2022-11-22T13:34:03.554Z,8.13
2022-11-22T13:36:51.493Z,5.97
2022-11-22T13:39:43.754Z,3.53
2022-11-22T13:42:30.543Z,2.97
2022-11-22T13:45:23.983Z,2.77
2022-11-22T13:48:12.587Z,3.37
2022-11-22T13:51:03.438Z,4.07
2022-11-22T13:53:50.809Z,5.47
2022-11-22T13:57:01.678Z,3.23
2022-11-22T13:59:48.522Z,4.17
2022-11-22T14:02:35.090Z,4.43
2022-11-22T14:05:27.490Z,4.33
2022-11-22T14:08:31.074Z,4.50
2022-11-22T14:11:40.521Z,7.47
2022-11-22T14:14:33.056Z,3.37
2022-11-22T14:17:27.872Z,6.93
2022-11-22T14:20:34.147Z,3.40
2022-11-22T14:23:28.946Z,2.70
2022-11-22T14:26:25.658Z,3.33
2022-11-22T14:29:39.327Z,5.80
2022-11-22T14:32:26.794Z,6.07
2022-11-22T14:35:32.350Z,5.30
2022-11-22T14:38:31.510Z,5.83
2022-11-22T14:41:48.399Z,3.37
2022-11-22T14:44:36.401Z,4.67
2022-11-22T14:47:22.984Z,4.80
2022-11-22T14:50:16.621Z,4.60
2022-11-22T14:53:17.207Z,4.30
2022-11-22T14:56:13.347Z,5.57
2022-11-22T14:59:13.449Z,6.50
2022-11-22T15:02:38.566Z,4.93
2022-11-22T15:09:14.560Z,2.87
2022-11-22T15:09:19.465Z,3.70
2022-11-22T15:12:14.599Z,5.87
2022-11-22T15:59:50.072Z,4.53
2022-11-22T16:02:41.265Z,5.73
2022-11-22T16:06:05.339Z,8.03
2022-11-22T16:08:40.146Z,6.43
2022-11-22T16:11:30.806Z,5.03
2022-11-22T16:14:47.389Z,6.07
2022-11-22T16:17:37.964Z,2.33
2022-11-22T16:20:30.619Z,5.73
2022-11-22T16:23:25.274Z,3.10
2022-11-22T16:26:21.891Z,3.87
2022-11-22T16:29:33.909Z,3.53
2022-11-22T16:32:22.017Z,5.70
2022-11-22T16:35:28.671Z,3.20
2022-11-22T16:38:16.505Z,2.37
2022-11-22T16:41:02.977Z,4.27
2022-11-22T16:43:51.073Z,5.43
2022-11-22T16:46:37.623Z,4.40
2022-11-22T16:49:25.507Z,5.23
2022-11-22T16:52:13.053Z,6.17
2022-11-22T16:54:59.528Z,2.90
2022-11-22T16:57:46.651Z,3.75
2022-11-22T17:00:35.461Z,6.33
2022-11-22T17:03:25.471Z,4.40
2022-11-22T17:06:18.573Z,3.43
2022-11-22T17:09:05.662Z,2.33
2022-11-22T17:11:52.298Z,3.40
2022-11-22T17:14:39.072Z,1.57
2022-11-22T17:17:25.632Z,2.33
2022-11-22T17:20:12.503Z,3.37
2022-11-22T17:23:00.912Z,6.20
2022-11-22T17:25:47.611Z,3.97
2022-11-22T17:28:34.353Z,3.67
2022-11-22T17:31:23.116Z,2.83
2022-11-22T17:34:10.900Z,5.93
2022-11-22T17:36:57.234Z,3.47
2022-11-22T17:39:45.234Z,2.13
2022-11-22T17:42:34.520Z,2.17
2022-11-22T17:45:24.843Z,3.07
2022-11-22T17:48:12.035Z,1.23
2022-11-22T17:50:58.628Z,2.93
2022-11-22T17:53:45.133Z,3.60
2022-11-22T17:56:33.743Z,5.67
2022-11-22T17:59:20.207Z,2.03
2022-11-22T18:02:06.731Z,3.80
2022-11-22T18:04:54.725Z,3.50
2022-11-22T18:07:41.835Z,2.57
2022-11-22T18:10:28.358Z,7.10
2022-11-22T18:13:23.365Z,2.17
2022-11-22T18:16:14.191Z,4.07
2022-11-22T18:19:00.906Z,3.70
2022-11-22T18:21:47.734Z,4.93
2022-11-22T18:24:34.144Z,5.50
2022-11-22T18:27:20.693Z,3.77
2022-11-22T18:30:10.272Z,2.47
2022-11-22T18:32:58.066Z,5.27
2022-11-22T18:35:55.898Z,4.23
2022-11-22T18:38:43.865Z,3.30
2022-11-22T18:41:30.658Z,5.07
2022-11-22T18:44:17.183Z,2.77
2022-11-22T18:47:05.476Z,5.23
2022-11-22T18:49:51.995Z,4.07
2022-11-22T18:52:39.043Z,2.43
2022-11-22T18:55:25.734Z,3.90
2022-11-22T18:58:14.772Z,2.00
2022-11-22T19:01:09.156Z,4.30
2022-11-22T19:03:57.122Z,3.80
2022-11-22T19:06:44.549Z,3.10
2022-11-22T19:09:31.369Z,1.93
2022-11-22T19:12:17.977Z,5.07
2022-11-22T19:15:06.322Z,5.60
2022-11-22T19:17:52.980Z,4.73
2022-11-22T19:20:55.097Z,1.50
2022-11-22T19:23:42.484Z,2.07
2022-11-22T19:26:29.411Z,3.93
2022-11-22T19:29:16.135Z,2.73
2022-11-22T19:32:02.724Z,4.73
2022-11-22T19:34:51.199Z,5.03
2022-11-22T19:37:39.385Z,6.03
2022-11-22T19:40:26.182Z,5.50
2022-11-22T19:43:16.386Z,2.17
2022-11-22T19:46:03.502Z,1.97
2022-11-22T19:48:52.830Z,3.97
2022-11-22T19:51:39.470Z,2.83
2022-11-22T19:56:53.602Z,1.93
2022-11-22T19:59:40.401Z,2.80
2022-11-22T20:02:27.154Z,2.90
2022-11-22T20:05:13.738Z,3.07
2022-11-22T20:08:00.330Z,3.20
2022-11-22T20:10:47.260Z,4.53
2022-11-22T20:13:37.763Z,3.00
2022-11-22T20:16:26.102Z,2.57
2022-11-22T20:19:12.953Z,3.53
2022-11-22T20:21:59.579Z,2.33
2022-11-22T20:24:45.966Z,3.80
2022-11-22T20:27:32.530Z,2.93
2022-11-22T20:30:20.769Z,2.50
2022-11-22T20:33:07.673Z,4.73
2022-11-22T20:35:54.208Z,6.00
2022-11-22T20:38:42.387Z,3.27
2022-11-22T20:41:30.381Z,2.37
2022-11-22T20:44:19.779Z,3.13
2022-11-22T20:47:09.967Z,2.83
2022-11-22T20:49:56.695Z,4.27
2022-11-22T20:52:43.211Z,1.93
2022-11-22T20:55:29.715Z,1.50
2022-11-22T20:58:16.159Z,3.33
2022-11-22T21:01:06.502Z,2.60
2022-11-22T21:03:54.990Z,4.30
2022-11-22T21:06:41.463Z,3.73
2022-11-22T21:09:27.875Z,3.63
2022-11-22T21:12:14.302Z,2.37
2022-11-22T21:15:00.709Z,2.87
2022-11-22T21:18:17.186Z,3.37
2022-11-22T21:20:55.796Z,2.47
2022-11-22T21:23:44.638Z,2.33
2022-11-22T21:26:31.828Z,2.20
2022-11-22T21:29:18.454Z,2.77
2022-11-22T21:32:04.930Z,1.63
2022-11-22T21:34:51.393Z,3.90
2022-11-22T21:37:39.246Z,5.17
2022-11-22T21:40:26.035Z,3.70
2022-11-22T21:43:12.535Z,3.23
2022-11-22T21:45:59.368Z,2.30
2022-11-22T21:48:46.060Z,2.47
2022-11-22T21:51:32.669Z,3.07
2022-11-22T21:54:20.939Z,1.30
2022-11-22T21:57:08.047Z,2.97
2022-11-22T21:59:54.545Z,1.80
2022-11-22T22:02:41.001Z,1.57
2022-11-22T22:05:27.608Z,2.30
2022-11-22T22:08:14.243Z,1.83
2022-11-22T22:11:05.082Z,2.50
2022-11-22T22:13:53.858Z,1.43
2022-11-22T22:16:40.659Z,1.80
2022-11-22T22:19:27.140Z,2.43
2022-11-22T22:22:13.591Z,3.40
2022-11-22T22:25:00.170Z,1.63
2022-11-22T22:27:48.035Z,2.23
2022-11-22T22:30:34.977Z,2.40
2022-11-22T22:33:21.956Z,2.10
2022-11-22T22:36:10.548Z,2.83
2022-11-22T22:38:56.990Z,2.33
2022-11-22T22:41:43.541Z,2.60
2022-11-22T22:44:32.739Z,1.40
2022-11-22T22:47:19.211Z,1.80
2022-11-22T22:50:06.381Z,2.27
2022-11-22T22:52:52.851Z,2.23
2022-11-22T22:55:39.252Z,1.60
2022-11-22T22:58:25.767Z,2.37
2022-11-22T23:01:15.558Z,1.50
2022-11-22T23:04:03.437Z,5.93
2022-11-22T23:06:50.170Z,3.43
2022-11-22T23:09:36.654Z,1.40
2022-11-22T23:12:23.020Z,1.93
2022-11-22T23:15:10.281Z,2.60
2022-11-22T23:17:58.247Z,1.37
2022-11-22T23:20:44.980Z,1.23
2022-11-22T23:23:31.674Z,4.50
2022-11-22T23:26:18.467Z,1.87
2022-11-22T23:29:06.864Z,1.37
2022-11-22T23:31:53.473Z,2.13
2022-11-22T23:34:41.663Z,1.73
2022-11-22T23:37:28.487Z,1.80
2022-11-22T23:40:15.606Z,1.50
2022-11-22T23:43:02.430Z,1.60
2022-11-22T23:45:48.817Z,2.37
2022-11-22T23:48:35.576Z,1.20
2022-11-22T23:51:24.428Z,1.80
2022-11-22T23:54:11.707Z,1.53
2022-11-22T23:56:58.122Z,2.90
2022-11-22T23:59:44.506Z,1.80
